sensor_id;sensor_type;location;lat;lon;timestamp;P1;durP1;ratioP1;P2;durP2;ratioP2
41952;SDS011;63613;28.200;112.870;2023-06-22T00:01:51;4.28;;;3.92;;
41952;SDS011;63613;28.200;112.870;2023-06-22T00:04:18;3.80;;;3.47;;
41952;SDS011;63613;28.200;112.870;2023-06-22T00:06:44;4.32;;;4.00;;
41952;SDS011;63613;28.200;112.870;2023-06-22T00:09:11;4.13;;;3.83;;
41952;SDS011;63613;28.200;112.870;2023-06-22T00:11:38;4.45;;;4.05;;
41952;SDS011;63613;28.200;112.870;2023-06-22T00:14:05;5.20;;;4.70;;
41952;SDS011;63613;28.200;112.870;2023-06-22T00:16:32;4.10;;;3.80;;
41952;SDS011;63613;28.200;112.870;2023-06-22T00:19:01;4.05;;;3.75;;
41952;SDS011;63613;28.200;112.870;2023-06-22T00:21:31;3.92;;;3.60;;
41952;SDS011;63613;28.200;112.870;2023-06-22T00:23:58;4.68;;;4.25;;
41952;SDS011;63613;28.200;112.870;2023-06-22T00:26:25;4.40;;;4.10;;
41952;SDS011;63613;28.200;112.870;2023-06-22T00:28:52;4.03;;;3.72;;
41952;SDS011;63613;28.200;112.870;2023-06-22T00:31:22;3.97;;;3.60;;
41952;SDS011;63613;28.200;112.870;2023-06-22T00:33:48;4.25;;;3.92;;
41952;SDS011;63613;28.200;112.870;2023-06-22T00:36:16;4.43;;;4.07;;
41952;SDS011;63613;28.200;112.870;2023-06-22T00:38:46;4.20;;;3.90;;
41952;SDS011;63613;28.200;112.870;2023-06-22T00:41:15;4.18;;;3.85;;
41952;SDS011;63613;28.200;112.870;2023-06-22T00:43:42;4.50;;;4.15;;
41952;SDS011;63613;28.200;112.870;2023-06-22T00:46:15;4.77;;;4.43;;
41952;SDS011;63613;28.200;112.870;2023-06-22T00:48:42;4.22;;;3.63;;
41952;SDS011;63613;28.200;112.870;2023-06-22T00:51:09;4.80;;;4.40;;
41952;SDS011;63613;28.200;112.870;2023-06-22T00:53:36;4.63;;;4.20;;
41952;SDS011;63613;28.200;112.870;2023-06-22T00:56:03;4.35;;;4.05;;
41952;SDS011;63613;28.200;112.870;2023-06-22T00:58:32;3.83;;;3.53;;
41952;SDS011;63613;28.200;112.870;2023-06-22T01:01:00;4.28;;;3.90;;
41952;SDS011;63613;28.200;112.870;2023-06-22T01:03:27;4.15;;;3.85;;
41952;SDS011;63613;28.200;112.870;2023-06-22T01:05:56;4.82;;;4.43;;
41952;SDS011;63613;28.200;112.870;2023-06-22T01:08:42;5.30;;;4.70;;
41952;SDS011;63613;28.200;112.870;2023-06-22T01:11:32;4.55;;;4.15;;
41952;SDS011;63613;28.200;112.870;2023-06-22T01:14:12;4.65;;;4.28;;
41952;SDS011;63613;28.200;112.870;2023-06-22T01:16:57;4.05;;;3.75;;
41952;SDS011;63613;28.200;112.870;2023-06-22T01:19:37;4.50;;;4.10;;
41952;SDS011;63613;28.200;112.870;2023-06-22T01:22:16;3.90;;;3.60;;
41952;SDS011;63613;28.200;112.870;2023-06-22T01:30:28;4.82;;;4.43;;
41952;SDS011;63613;28.200;112.870;2023-06-22T01:32:57;4.20;;;3.80;;
41952;SDS011;63613;28.200;112.870;2023-06-22T01:35:24;4.75;;;4.35;;
41952;SDS011;63613;28.200;112.870;2023-06-22T01:37:52;4.13;;;3.83;;
41952;SDS011;63613;28.200;112.870;2023-06-22T01:40:22;4.20;;;3.80;;
41952;SDS011;63613;28.200;112.870;2023-06-22T01:42:49;4.57;;;4.18;;
41952;SDS011;63613;28.200;112.870;2023-06-22T01:45:18;4.47;;;4.13;;
41952;SDS011;63613;28.200;112.870;2023-06-22T01:47:45;4.35;;;4.05;;
41952;SDS011;63613;28.200;112.870;2023-06-22T01:50:12;4.75;;;4.32;;
41952;SDS011;63613;28.200;112.870;2023-06-22T01:52:39;5.25;;;4.72;;
41952;SDS011;63613;28.200;112.870;2023-06-22T01:55:06;4.40;;;4.00;;
41952;SDS011;63613;28.200;112.870;2023-06-22T01:57:34;4.75;;;4.10;;
41952;SDS011;63613;28.200;112.870;2023-06-22T02:00:02;4.50;;;3.95;;
41952;SDS011;63613;28.200;112.870;2023-06-22T02:02:39;4.57;;;4.20;;
41952;SDS011;63613;28.200;112.870;2023-06-22T02:05:17;4.13;;;3.78;;
41952;SDS011;63613;28.200;112.870;2023-06-22T02:07:46;4.47;;;4.18;;
41952;SDS011;63613;28.200;112.870;2023-06-22T02:10:24;4.35;;;4.05;;
41952;SDS011;63613;28.200;112.870;2023-06-22T02:12:54;4.45;;;4.13;;
41952;SDS011;63613;28.200;112.870;2023-06-22T02:15:21;4.07;;;3.72;;
41952;SDS011;63613;28.200;112.870;2023-06-22T02:17:51;4.13;;;3.83;;
41952;SDS011;63613;28.200;112.870;2023-06-22T02:20:18;4.90;;;4.40;;
41952;SDS011;63613;28.200;112.870;2023-06-22T02:22:45;4.50;;;4.10;;
41952;SDS011;63613;28.200;112.870;2023-06-22T02:25:12;4.60;;;4.20;;
41952;SDS011;63613;28.200;112.870;2023-06-22T02:27:39;4.63;;;4.30;;
41952;SDS011;63613;28.200;112.870;2023-06-22T02:30:09;4.35;;;4.03;;
41952;SDS011;63613;28.200;112.870;2023-06-22T02:32:36;4.03;;;3.72;;
41952;SDS011;63613;28.200;112.870;2023-06-22T02:35:07;4.38;;;4.07;;
41952;SDS011;63613;28.200;112.870;2023-06-22T02:37:37;4.43;;;4.13;;
41952;SDS011;63613;28.200;112.870;2023-06-22T02:40:07;4.68;;;4.28;;
41952;SDS011;63613;28.200;112.870;2023-06-22T02:42:36;4.30;;;4.00;;
41952;SDS011;63613;28.200;112.870;2023-06-22T02:45:06;4.35;;;4.00;;
41952;SDS011;63613;28.200;112.870;2023-06-22T02:47:33;4.55;;;4.22;;
41952;SDS011;63613;28.200;112.870;2023-06-22T02:50:00;4.22;;;3.83;;
41952;SDS011;63613;28.200;112.870;2023-06-22T02:52:27;4.25;;;3.95;;
41952;SDS011;63613;28.200;112.870;2023-06-22T02:54:54;4.38;;;4.07;;
41952;SDS011;63613;28.200;112.870;2023-06-22T02:57:21;4.35;;;4.05;;
41952;SDS011;63613;28.200;112.870;2023-06-22T02:59:48;4.18;;;3.88;;
41952;SDS011;63613;28.200;112.870;2023-06-22T03:02:14;4.70;;;4.30;;
41952;SDS011;63613;28.200;112.870;2023-06-22T03:04:41;5.13;;;4.63;;
41952;SDS011;63613;28.200;112.870;2023-06-22T03:07:08;4.82;;;3.85;;
41952;SDS011;63613;28.200;112.870;2023-06-22T03:09:35;4.15;;;3.85;;
41952;SDS011;63613;28.200;112.870;2023-06-22T03:12:04;4.80;;;4.25;;
41952;SDS011;63613;28.200;112.870;2023-06-22T03:14:34;3.97;;;3.67;;
41952;SDS011;63613;28.200;112.870;2023-06-22T03:17:01;4.28;;;3.97;;
41952;SDS011;63613;28.200;112.870;2023-06-22T03:19:29;4.78;;;4.25;;
41952;SDS011;63613;28.200;112.870;2023-06-22T03:21:59;4.55;;;4.15;;
41952;SDS011;63613;28.200;112.870;2023-06-22T03:24:26;4.20;;;3.90;;
41952;SDS011;63613;28.200;112.870;2023-06-22T03:26:56;4.70;;;4.30;;
41952;SDS011;63613;28.200;112.870;2023-06-22T03:29:26;4.40;;;4.00;;
41952;SDS011;63613;28.200;112.870;2023-06-22T03:31:56;4.40;;;4.00;;
41952;SDS011;63613;28.200;112.870;2023-06-22T03:34:27;4.40;;;4.10;;
41952;SDS011;63613;28.200;112.870;2023-06-22T03:36:57;3.88;;;3.58;;
41952;SDS011;63613;28.200;112.870;2023-06-22T03:39:24;4.18;;;3.88;;
41952;SDS011;63613;28.200;112.870;2023-06-22T03:41:50;4.57;;;4.28;;
41952;SDS011;63613;28.200;112.870;2023-06-22T03:44:17;4.25;;;3.95;;
41952;SDS011;63613;28.200;112.870;2023-06-22T03:46:44;4.38;;;4.07;;
41952;SDS011;63613;28.200;112.870;2023-06-22T03:49:11;4.15;;;3.85;;
41952;SDS011;63613;28.200;112.870;2023-06-22T03:51:37;4.70;;;4.30;;
41952;SDS011;63613;28.200;112.870;2023-06-22T03:54:05;5.03;;;4.63;;
41952;SDS011;63613;28.200;112.870;2023-06-22T03:56:31;4.82;;;4.45;;
41952;SDS011;63613;28.200;112.870;2023-06-22T03:58:58;4.35;;;3.95;;
41952;SDS011;63613;28.200;112.870;2023-06-22T04:01:26;4.57;;;4.18;;
41952;SDS011;63613;28.200;112.870;2023-06-22T04:03:52;4.10;;;3.80;;
41952;SDS011;63613;28.200;112.870;2023-06-22T04:06:19;5.22;;;4.82;;
41952;SDS011;63613;28.200;112.870;2023-06-22T04:08:48;4.15;;;3.85;;
41952;SDS011;63613;28.200;112.870;2023-06-22T04:11:16;4.47;;;4.07;;
41952;SDS011;63613;28.200;112.870;2023-06-22T04:13:43;4.45;;;4.00;;
41952;SDS011;63613;28.200;112.870;2023-06-22T04:16:10;4.30;;;4.00;;
41952;SDS011;63613;28.200;112.870;2023-06-22T04:18:37;4.95;;;4.55;;
41952;SDS011;63613;28.200;112.870;2023-06-22T04:21:04;4.78;;;4.40;;
41952;SDS011;63613;28.200;112.870;2023-06-22T04:23:31;3.80;;;3.50;;
41952;SDS011;63613;28.200;112.870;2023-06-22T04:25:58;4.55;;;4.25;;
41952;SDS011;63613;28.200;112.870;2023-06-22T04:28:26;4.13;;;3.83;;
41952;SDS011;63613;28.200;112.870;2023-06-22T04:30:53;4.15;;;3.85;;
41952;SDS011;63613;28.200;112.870;2023-06-22T04:33:23;4.78;;;4.38;;
41952;SDS011;63613;28.200;112.870;2023-06-22T04:35:50;4.53;;;4.13;;
41952;SDS011;63613;28.200;112.870;2023-06-22T04:38:18;4.53;;;4.13;;
41952;SDS011;63613;28.200;112.870;2023-06-22T04:40:46;4.70;;;4.32;;
41952;SDS011;63613;28.200;112.870;2023-06-22T04:43:13;4.82;;;4.43;;
41952;SDS011;63613;28.200;112.870;2023-06-22T04:45:40;4.47;;;4.15;;
41952;SDS011;63613;28.200;112.870;2023-06-22T04:48:07;4.40;;;4.00;;
41952;SDS011;63613;28.200;112.870;2023-06-22T04:50:37;4.53;;;4.13;;
41952;SDS011;63613;28.200;112.870;2023-06-22T04:53:06;4.93;;;4.53;;
41952;SDS011;63613;28.200;112.870;2023-06-22T04:55:38;5.10;;;4.60;;
41952;SDS011;63613;28.200;112.870;2023-06-22T04:58:11;4.47;;;4.07;;
41952;SDS011;63613;28.200;112.870;2023-06-22T05:00:38;4.47;;;4.07;;
41952;SDS011;63613;28.200;112.870;2023-06-22T05:03:05;5.75;;;4.72;;
41952;SDS011;63613;28.200;112.870;2023-06-22T05:05:36;5.00;;;4.47;;
41952;SDS011;63613;28.200;112.870;2023-06-22T05:08:03;4.55;;;4.15;;
41952;SDS011;63613;28.200;112.870;2023-06-22T05:10:32;4.32;;;3.92;;
41952;SDS011;63613;28.200;112.870;2023-06-22T05:12:59;5.55;;;5.03;;
41952;SDS011;63613;28.200;112.870;2023-06-22T05:15:26;4.75;;;4.35;;
41952;SDS011;63613;28.200;112.870;2023-06-22T05:17:56;4.60;;;4.20;;
41952;SDS011;63613;28.200;112.870;2023-06-22T05:20:23;5.40;;;4.95;;
41952;SDS011;63613;28.200;112.870;2023-06-22T05:22:52;4.88;;;4.47;;
41952;SDS011;63613;28.200;112.870;2023-06-22T05:25:21;4.90;;;4.47;;
41952;SDS011;63613;28.200;112.870;2023-06-22T05:27:48;4.85;;;4.45;;
41952;SDS011;63613;28.200;112.870;2023-06-22T05:30:17;4.53;;;4.13;;
41952;SDS011;63613;28.200;112.870;2023-06-22T05:32:46;4.60;;;4.20;;
41952;SDS011;63613;28.200;112.870;2023-06-22T05:35:13;5.80;;;4.93;;
41952;SDS011;63613;28.200;112.870;2023-06-22T05:37:39;5.05;;;4.65;;
41952;SDS011;63613;28.200;112.870;2023-06-22T05:40:06;5.22;;;4.72;;
41952;SDS011;63613;28.200;112.870;2023-06-22T05:42:35;5.20;;;4.55;;
41952;SDS011;63613;28.200;112.870;2023-06-22T05:45:02;5.38;;;4.93;;
41952;SDS011;63613;28.200;112.870;2023-06-22T05:47:34;5.32;;;4.82;;
41952;SDS011;63613;28.200;112.870;2023-06-22T05:50:02;5.40;;;4.90;;
41952;SDS011;63613;28.200;112.870;2023-06-22T05:52:34;5.85;;;4.90;;
41952;SDS011;63613;28.200;112.870;2023-06-22T05:55:01;5.85;;;5.28;;
41952;SDS011;63613;28.200;112.870;2023-06-22T05:57:31;6.30;;;5.50;;
41952;SDS011;63613;28.200;112.870;2023-06-22T06:00:18;5.45;;;4.95;;
41952;SDS011;63613;28.200;112.870;2023-06-22T06:02:48;5.15;;;4.65;;
41952;SDS011;63613;28.200;112.870;2023-06-22T06:05:17;5.50;;;5.00;;
41952;SDS011;63613;28.200;112.870;2023-06-22T06:07:46;5.88;;;5.38;;
41952;SDS011;63613;28.200;112.870;2023-06-22T06:10:16;6.03;;;5.38;;
41952;SDS011;63613;28.200;112.870;2023-06-22T06:12:45;5.72;;;5.22;;
41952;SDS011;63613;28.200;112.870;2023-06-22T06:15:12;6.07;;;5.55;;
41952;SDS011;63613;28.200;112.870;2023-06-22T06:17:47;6.20;;;5.45;;
41952;SDS011;63613;28.200;112.870;2023-06-22T06:20:19;6.25;;;5.65;;
41952;SDS011;63613;28.200;112.870;2023-06-22T06:22:52;6.93;;;5.03;;
41952;SDS011;63613;28.200;112.870;2023-06-22T06:25:18;5.38;;;4.88;;
41952;SDS011;63613;28.200;112.870;2023-06-22T06:27:47;6.15;;;5.55;;
41952;SDS011;63613;28.200;112.870;2023-06-22T06:30:16;6.28;;;4.85;;
41952;SDS011;63613;28.200;112.870;2023-06-22T06:32:44;5.68;;;5.18;;
41952;SDS011;63613;28.200;112.870;2023-06-22T06:35:13;5.20;;;4.70;;
41952;SDS011;63613;28.200;112.870;2023-06-22T06:37:45;6.18;;;5.57;;
41952;SDS011;63613;28.200;112.870;2023-06-22T06:40:14;5.57;;;5.07;;
41952;SDS011;63613;28.200;112.870;2023-06-22T06:42:43;5.40;;;4.90;;
41952;SDS011;63613;28.200;112.870;2023-06-22T06:45:11;5.60;;;5.05;;
41952;SDS011;63613;28.200;112.870;2023-06-22T06:47:42;5.70;;;5.10;;
41952;SDS011;63613;28.200;112.870;2023-06-22T06:50:11;5.75;;;4.90;;
41952;SDS011;63613;28.200;112.870;2023-06-22T06:53:00;5.00;;;4.60;;
41952;SDS011;63613;28.200;112.870;2023-06-22T06:55:27;4.93;;;4.53;;
41952;SDS011;63613;28.200;112.870;2023-06-22T06:57:54;5.32;;;4.70;;
41952;SDS011;63613;28.200;112.870;2023-06-22T07:00:20;5.03;;;4.32;;
41952;SDS011;63613;28.200;112.870;2023-06-22T07:02:47;5.68;;;5.07;;
41952;SDS011;63613;28.200;112.870;2023-06-22T07:05:16;6.25;;;5.65;;
41952;SDS011;63613;28.200;112.870;2023-06-22T07:07:43;5.65;;;4.78;;
41952;SDS011;63613;28.200;112.870;2023-06-22T07:10:12;4.57;;;4.22;;
41952;SDS011;63613;28.200;112.870;2023-06-22T07:12:42;5.45;;;4.97;;
41952;SDS011;63613;28.200;112.870;2023-06-22T07:15:09;5.75;;;5.25;;
41952;SDS011;63613;28.200;112.870;2023-06-22T07:17:38;5.32;;;4.82;;
41952;SDS011;63613;28.200;112.870;2023-06-22T07:20:10;5.40;;;4.85;;
41952;SDS011;63613;28.200;112.870;2023-06-22T07:22:38;5.60;;;5.10;;
41952;SDS011;63613;28.200;112.870;2023-06-22T07:25:06;5.55;;;4.65;;
41952;SDS011;63613;28.200;112.870;2023-06-22T07:27:43;5.50;;;5.00;;
41952;SDS011;63613;28.200;112.870;2023-06-22T07:30:11;5.47;;;4.97;;
41952;SDS011;63613;28.200;112.870;2023-06-22T07:32:40;5.65;;;5.10;;
41952;SDS011;63613;28.200;112.870;2023-06-22T07:35:07;5.88;;;5.13;;
41952;SDS011;63613;28.200;112.870;2023-06-22T07:37:36;5.70;;;5.20;;
41952;SDS011;63613;28.200;112.870;2023-06-22T07:40:04;5.90;;;5.30;;
41952;SDS011;63613;28.200;112.870;2023-06-22T07:42:32;5.38;;;4.88;;
41952;SDS011;63613;28.200;112.870;2023-06-22T07:44:59;6.95;;;5.78;;
41952;SDS011;63613;28.200;112.870;2023-06-22T07:47:29;5.80;;;5.25;;
41952;SDS011;63613;28.200;112.870;2023-06-22T07:49:59;5.75;;;5.20;;
41952;SDS011;63613;28.200;112.870;2023-06-22T07:52:36;5.57;;;5.07;;
41952;SDS011;63613;28.200;112.870;2023-06-22T07:55:06;5.65;;;5.15;;
41952;SDS011;63613;28.200;112.870;2023-06-22T07:57:34;5.70;;;5.18;;
41952;SDS011;63613;28.200;112.870;2023-06-22T08:00:02;5.57;;;4.93;;
41952;SDS011;63613;28.200;112.870;2023-06-22T08:02:40;5.47;;;4.97;;
41952;SDS011;63613;28.200;112.870;2023-06-22T08:05:08;6.30;;;5.50;;
41952;SDS011;63613;28.200;112.870;2023-06-22T08:07:37;6.22;;;5.35;;
41952;SDS011;63613;28.200;112.870;2023-06-22T08:10:04;5.70;;;5.20;;
41952;SDS011;63613;28.200;112.870;2023-06-22T08:12:33;5.72;;;5.13;;
41952;SDS011;63613;28.200;112.870;2023-06-22T08:15:02;5.13;;;4.70;;
41952;SDS011;63613;28.200;112.870;2023-06-22T08:17:31;5.45;;;4.95;;
41952;SDS011;63613;28.200;112.870;2023-06-22T08:20:05;6.00;;;4.83;;
41952;SDS011;63613;28.200;112.870;2023-06-22T08:22:53;6.07;;;4.95;;
41952;SDS011;63613;28.200;112.870;2023-06-22T08:25:23;5.53;;;5.03;;
41952;SDS011;63613;28.200;112.870;2023-06-22T08:28:10;6.28;;;5.00;;
41952;SDS011;63613;28.200;112.870;2023-06-22T08:30:38;5.55;;;5.05;;
41952;SDS011;63613;28.200;112.870;2023-06-22T08:33:05;6.35;;;4.80;;
41952;SDS011;63613;28.200;112.870;2023-06-22T08:35:32;5.32;;;4.75;;
41952;SDS011;63613;28.200;112.870;2023-06-22T08:38:00;5.22;;;4.72;;
41952;SDS011;63613;28.200;112.870;2023-06-22T08:40:27;5.28;;;4.85;;
41952;SDS011;63613;28.200;112.870;2023-06-22T08:42:54;4.80;;;4.40;;
41952;SDS011;63613;28.200;112.870;2023-06-22T08:45:21;6.32;;;5.43;;
41952;SDS011;63613;28.200;112.870;2023-06-22T08:47:48;4.93;;;4.45;;
41952;SDS011;63613;28.200;112.870;2023-06-22T08:50:15;5.28;;;4.75;;
41952;SDS011;63613;28.200;112.870;2023-06-22T08:52:46;5.30;;;4.90;;
41952;SDS011;63613;28.200;112.870;2023-06-22T08:55:13;5.97;;;5.40;;
41952;SDS011;63613;28.200;112.870;2023-06-22T08:57:40;5.10;;;4.70;;
41952;SDS011;63613;28.200;112.870;2023-06-22T09:00:09;5.45;;;4.95;;
41952;SDS011;63613;28.200;112.870;2023-06-22T09:02:43;5.82;;;5.32;;
41952;SDS011;63613;28.200;112.870;2023-06-22T09:05:10;5.88;;;5.32;;
41952;SDS011;63613;28.200;112.870;2023-06-22T09:07:37;5.30;;;4.90;;
41952;SDS011;63613;28.200;112.870;2023-06-22T09:10:04;5.50;;;5.00;;
41952;SDS011;63613;28.200;112.870;2023-06-22T09:12:33;5.18;;;4.78;;
41952;SDS011;63613;28.200;112.870;2023-06-22T09:15:03;5.68;;;5.18;;
41952;SDS011;63613;28.200;112.870;2023-06-22T09:17:34;5.32;;;4.82;;
41952;SDS011;63613;28.200;112.870;2023-06-22T09:20:01;5.05;;;4.65;;
41952;SDS011;63613;28.200;112.870;2023-06-22T09:22:48;4.85;;;4.45;;
41952;SDS011;63613;28.200;112.870;2023-06-22T09:25:15;6.18;;;5.68;;
41952;SDS011;63613;28.200;112.870;2023-06-22T09:27:42;5.30;;;4.68;;
41952;SDS011;63613;28.200;112.870;2023-06-22T09:30:12;5.47;;;4.97;;
41952;SDS011;63613;28.200;112.870;2023-06-22T09:32:44;5.63;;;5.13;;
41952;SDS011;63613;28.200;112.870;2023-06-22T09:35:12;5.15;;;4.63;;
41952;SDS011;63613;28.200;112.870;2023-06-22T09:37:39;5.35;;;4.85;;
41952;SDS011;63613;28.200;112.870;2023-06-22T09:40:08;5.88;;;5.28;;
41952;SDS011;63613;28.200;112.870;2023-06-22T09:42:36;5.22;;;4.82;;
41952;SDS011;63613;28.200;112.870;2023-06-22T09:45:05;5.40;;;5.00;;
41952;SDS011;63613;28.200;112.870;2023-06-22T09:47:32;5.22;;;4.82;;
41952;SDS011;63613;28.200;112.870;2023-06-22T09:49:59;5.25;;;4.80;;
41952;SDS011;63613;28.200;112.870;2023-06-22T09:52:26;5.05;;;4.65;;
41952;SDS011;63613;28.200;112.870;2023-06-22T09:54:53;5.60;;;4.65;;
41952;SDS011;63613;28.200;112.870;2023-06-22T09:57:19;5.22;;;4.80;;
41952;SDS011;63613;28.200;112.870;2023-06-22T09:59:46;4.97;;;4.57;;
41952;SDS011;63613;28.200;112.870;2023-06-22T10:02:14;5.57;;;5.07;;
41952;SDS011;63613;28.200;112.870;2023-06-22T10:04:42;4.93;;;4.53;;
41952;SDS011;63613;28.200;112.870;2023-06-22T10:07:12;5.55;;;5.00;;
41952;SDS011;63613;28.200;112.870;2023-06-22T10:09:39;5.05;;;4.65;;
41952;SDS011;63613;28.200;112.870;2023-06-22T10:12:06;5.78;;;5.25;;
41952;SDS011;63613;28.200;112.870;2023-06-22T10:14:33;5.35;;;4.95;;
41952;SDS011;63613;28.200;112.870;2023-06-22T10:17:00;5.65;;;5.15;;
41952;SDS011;63613;28.200;112.870;2023-06-22T10:19:27;5.70;;;5.30;;
41952;SDS011;63613;28.200;112.870;2023-06-22T10:21:54;5.35;;;4.90;;
41952;SDS011;63613;28.200;112.870;2023-06-22T10:24:21;5.53;;;5.07;;
41952;SDS011;63613;28.200;112.870;2023-06-22T10:26:48;4.97;;;4.57;;
41952;SDS011;63613;28.200;112.870;2023-06-22T10:29:16;5.07;;;4.60;;
41952;SDS011;63613;28.200;112.870;2023-06-22T10:31:46;5.15;;;4.75;;
41952;SDS011;63613;28.200;112.870;2023-06-22T10:34:13;4.82;;;4.38;;
41952;SDS011;63613;28.200;112.870;2023-06-22T10:36:39;5.20;;;4.78;;
41952;SDS011;63613;28.200;112.870;2023-06-22T10:39:06;5.47;;;4.97;;
41952;SDS011;63613;28.200;112.870;2023-06-22T10:41:34;5.22;;;4.72;;
41952;SDS011;63613;28.200;112.870;2023-06-22T10:44:01;4.85;;;4.45;;
41952;SDS011;63613;28.200;112.870;2023-06-22T10:46:28;5.55;;;5.05;;
41952;SDS011;63613;28.200;112.870;2023-06-22T10:48:55;5.57;;;5.10;;
41952;SDS011;63613;28.200;112.870;2023-06-22T10:51:24;4.93;;;4.53;;
41952;SDS011;63613;28.200;112.870;2023-06-22T10:53:56;5.18;;;4.78;;
41952;SDS011;63613;28.200;112.870;2023-06-22T10:56:23;5.15;;;4.75;;
41952;SDS011;63613;28.200;112.870;2023-06-22T10:58:52;4.80;;;4.40;;
41952;SDS011;63613;28.200;112.870;2023-06-22T11:01:20;5.47;;;4.97;;
41952;SDS011;63613;28.200;112.870;2023-06-22T11:03:49;5.82;;;4.50;;
41952;SDS011;63613;28.200;112.870;2023-06-22T11:06:16;5.70;;;5.20;;
41952;SDS011;63613;28.200;112.870;2023-06-22T11:08:46;5.20;;;4.78;;
41952;SDS011;63613;28.200;112.870;2023-06-22T11:11:13;5.57;;;5.00;;
41952;SDS011;63613;28.200;112.870;2023-06-22T11:13:43;5.25;;;4.78;;
41952;SDS011;63613;28.200;112.870;2023-06-22T11:16:10;5.43;;;4.93;;
41952;SDS011;63613;28.200;112.870;2023-06-22T11:18:36;5.65;;;5.15;;
41952;SDS011;63613;28.200;112.870;2023-06-22T11:21:03;4.90;;;4.50;;
41952;SDS011;63613;28.200;112.870;2023-06-22T11:23:30;5.40;;;4.90;;
41952;SDS011;63613;28.200;112.870;2023-06-22T11:25:57;5.47;;;5.07;;
41952;SDS011;63613;28.200;112.870;2023-06-22T11:28:27;5.18;;;4.68;;
41952;SDS011;63613;28.200;112.870;2023-06-22T11:30:55;6.15;;;5.47;;
41952;SDS011;63613;28.200;112.870;2023-06-22T11:33:22;5.80;;;5.30;;
41952;SDS011;63613;28.200;112.870;2023-06-22T11:36:08;6.18;;;5.63;;
41952;SDS011;63613;28.200;112.870;2023-06-22T11:38:37;6.18;;;5.57;;
41952;SDS011;63613;28.200;112.870;2023-06-22T11:41:08;5.85;;;5.35;;
41952;SDS011;63613;28.200;112.870;2023-06-22T11:43:36;5.78;;;5.28;;
41952;SDS011;63613;28.200;112.870;2023-06-22T11:46:03;5.32;;;4.82;;
41952;SDS011;63613;28.200;112.870;2023-06-22T11:48:31;5.53;;;5.03;;
41952;SDS011;63613;28.200;112.870;2023-06-22T11:51:02;5.82;;;5.32;;
41952;SDS011;63613;28.200;112.870;2023-06-22T11:53:29;5.78;;;5.18;;
41952;SDS011;63613;28.200;112.870;2023-06-22T11:55:57;5.07;;;4.57;;
41952;SDS011;63613;28.200;112.870;2023-06-22T11:58:25;6.38;;;5.28;;
41952;SDS011;63613;28.200;112.870;2023-06-22T12:00:53;5.30;;;4.80;;
41952;SDS011;63613;28.200;112.870;2023-06-22T12:03:40;5.20;;;4.70;;
41952;SDS011;63613;28.200;112.870;2023-06-22T12:06:09;5.35;;;4.85;;
41952;SDS011;63613;28.200;112.870;2023-06-22T12:08:35;5.15;;;4.65;;
41952;SDS011;63613;28.200;112.870;2023-06-22T12:11:03;5.35;;;4.95;;
41952;SDS011;63613;28.200;112.870;2023-06-22T12:13:30;5.47;;;4.97;;
41952;SDS011;63613;28.200;112.870;2023-06-22T12:15:57;6.25;;;5.35;;
41952;SDS011;63613;28.200;112.870;2023-06-22T12:18:23;5.75;;;5.22;;
41952;SDS011;63613;28.200;112.870;2023-06-22T12:20:51;5.68;;;5.18;;
41952;SDS011;63613;28.200;112.870;2023-06-22T12:23:18;5.13;;;4.63;;
41952;SDS011;63613;28.200;112.870;2023-06-22T12:25:48;5.82;;;5.32;;
41952;SDS011;63613;28.200;112.870;2023-06-22T12:28:15;5.55;;;5.05;;
41952;SDS011;63613;28.200;112.870;2023-06-22T12:30:43;6.40;;;5.80;;
41952;SDS011;63613;28.200;112.870;2023-06-22T12:33:30;5.47;;;4.97;;
41952;SDS011;63613;28.200;112.870;2023-06-22T12:35:57;6.13;;;5.57;;
41952;SDS011;63613;28.200;112.870;2023-06-22T12:38:25;5.93;;;5.40;;
41952;SDS011;63613;28.200;112.870;2023-06-22T12:40:52;6.35;;;5.75;;
41952;SDS011;63613;28.200;112.870;2023-06-22T12:43:21;5.28;;;4.55;;
41952;SDS011;63613;28.200;112.870;2023-06-22T12:45:48;5.38;;;4.88;;
41952;SDS011;63613;28.200;112.870;2023-06-22T12:48:16;6.18;;;5.55;;
41952;SDS011;63613;28.200;112.870;2023-06-22T12:50:42;5.35;;;4.85;;
41952;SDS011;63613;28.200;112.870;2023-06-22T12:53:09;5.93;;;5.32;;
41952;SDS011;63613;28.200;112.870;2023-06-22T12:55:36;5.55;;;5.05;;
41952;SDS011;63613;28.200;112.870;2023-06-22T12:58:04;6.57;;;5.55;;
41952;SDS011;63613;28.200;112.870;2023-06-22T13:00:32;5.45;;;4.95;;
41952;SDS011;63613;28.200;112.870;2023-06-22T13:03:01;7.20;;;5.57;;
41952;SDS011;63613;28.200;112.870;2023-06-22T13:05:28;5.60;;;5.10;;
41952;SDS011;63613;28.200;112.870;2023-06-22T13:07:56;5.80;;;5.30;;
41952;SDS011;63613;28.200;112.870;2023-06-22T13:10:23;5.85;;;4.75;;
41952;SDS011;63613;28.200;112.870;2023-06-22T13:12:49;6.45;;;5.20;;
41952;SDS011;63613;28.200;112.870;2023-06-22T13:15:26;5.63;;;5.15;;
41952;SDS011;63613;28.200;112.870;2023-06-22T13:17:56;6.07;;;5.57;;
41952;SDS011;63613;28.200;112.870;2023-06-22T13:20:23;6.05;;;5.45;;
41952;SDS011;63613;28.200;112.870;2023-06-22T13:22:50;6.38;;;5.25;;
41952;SDS011;63613;28.200;112.870;2023-06-22T13:25:17;5.75;;;5.25;;
41952;SDS011;63613;28.200;112.870;2023-06-22T13:27:46;6.35;;;5.35;;
41952;SDS011;63613;28.200;112.870;2023-06-22T13:30:13;5.43;;;4.90;;
41952;SDS011;63613;28.200;112.870;2023-06-22T13:33:00;6.50;;;5.90;;
41952;SDS011;63613;28.200;112.870;2023-06-22T13:35:28;5.95;;;5.43;;
41952;SDS011;63613;28.200;112.870;2023-06-22T13:37:55;5.85;;;4.93;;
41952;SDS011;63613;28.200;112.870;2023-06-22T13:40:24;5.43;;;4.97;;
41952;SDS011;63613;28.200;112.870;2023-06-22T13:42:51;5.40;;;4.90;;
41952;SDS011;63613;28.200;112.870;2023-06-22T13:45:18;5.55;;;4.88;;
41952;SDS011;63613;28.200;112.870;2023-06-22T13:47:46;5.57;;;5.05;;
41952;SDS011;63613;28.200;112.870;2023-06-22T13:50:13;5.40;;;4.90;;
41952;SDS011;63613;28.200;112.870;2023-06-22T13:52:42;5.95;;;5.43;;
41952;SDS011;63613;28.200;112.870;2023-06-22T13:55:29;5.45;;;4.95;;
41952;SDS011;63613;28.200;112.870;2023-06-22T13:57:56;5.80;;;5.00;;
41952;SDS011;63613;28.200;112.870;2023-06-22T14:00:23;5.45;;;4.90;;
41952;SDS011;63613;28.200;112.870;2023-06-22T14:02:53;5.03;;;4.47;;
41952;SDS011;63613;28.200;112.870;2023-06-22T14:05:25;4.97;;;4.47;;
41952;SDS011;63613;28.200;112.870;2023-06-22T14:07:56;5.82;;;5.32;;
41952;SDS011;63613;28.200;112.870;2023-06-22T14:10:23;5.82;;;5.32;;
41952;SDS011;63613;28.200;112.870;2023-06-22T14:12:51;5.70;;;5.20;;
41952;SDS011;63613;28.200;112.870;2023-06-22T14:15:18;5.43;;;4.90;;
41952;SDS011;63613;28.200;112.870;2023-06-22T14:17:45;5.43;;;4.93;;
41952;SDS011;63613;28.200;112.870;2023-06-22T14:20:14;4.95;;;4.50;;
41952;SDS011;63613;28.200;112.870;2023-06-22T14:22:44;5.40;;;4.90;;
41952;SDS011;63613;28.200;112.870;2023-06-22T14:25:12;5.53;;;5.03;;
41952;SDS011;63613;28.200;112.870;2023-06-22T14:27:41;5.35;;;4.85;;
41952;SDS011;63613;28.200;112.870;2023-06-22T14:30:11;4.90;;;4.40;;
41952;SDS011;63613;28.200;112.870;2023-06-22T14:32:39;5.10;;;4.70;;
41952;SDS011;63613;28.200;112.870;2023-06-22T14:35:07;5.20;;;4.75;;
41952;SDS011;63613;28.200;112.870;2023-06-22T14:37:37;5.50;;;5.00;;